createdAt,value
2018-12-14T00:01:51.347Z,17.43
2018-12-14T00:04:20.478Z,18.07
2018-12-14T00:06:49.651Z,19.23
2018-12-14T00:09:18.764Z,19.63
2018-12-14T00:11:47.959Z,18.33
2018-12-14T00:14:17.257Z,18.20
2018-12-14T00:16:46.382Z,18.00
2018-12-14T00:19:15.506Z,18.70
2018-12-14T00:21:44.642Z,19.10
2018-12-14T00:24:13.787Z,18.03
2018-12-14T00:26:42.949Z,19.10
2018-12-14T00:29:12.135Z,19.50
2018-12-14T00:31:41.333Z,18.37
2018-12-14T00:34:10.519Z,18.00
2018-12-14T00:36:39.702Z,19.23
2018-12-14T00:39:08.863Z,18.27
2018-12-14T00:41:38.070Z,20.73
2018-12-14T00:44:07.249Z,18.80
2018-12-14T00:46:40.591Z,17.60
2018-12-14T00:49:09.774Z,18.40
2018-12-14T00:51:38.977Z,19.10
2018-12-14T00:54:08.259Z,19.43
2018-12-14T00:56:37.432Z,19.33
2018-12-14T00:59:06.566Z,19.93
2018-12-14T01:01:35.746Z,19.37
2018-12-14T01:04:04.967Z,20.77
2018-12-14T01:06:34.108Z,18.90
2018-12-14T01:09:04.467Z,18.00
2018-12-14T01:11:33.674Z,17.90
2018-12-14T01:14:02.894Z,18.50
2018-12-14T01:16:32.179Z,19.97
2018-12-14T01:19:01.429Z,19.33
2018-12-14T01:21:30.543Z,19.10
2018-12-14T01:23:59.721Z,21.40
2018-12-14T01:26:28.906Z,18.23
2018-12-14T01:28:58.013Z,19.63
2018-12-14T01:31:27.177Z,21.37
2018-12-14T01:33:56.406Z,21.13
2018-12-14T01:36:25.555Z,19.17
2018-12-14T01:38:54.732Z,19.50
2018-12-14T01:41:23.827Z,19.67
2018-12-14T01:43:53.037Z,20.20
2018-12-14T01:46:22.195Z,19.50
2018-12-14T01:48:51.346Z,18.87
2018-12-14T01:51:20.464Z,19.23
2018-12-14T01:53:49.700Z,19.73
2018-12-14T01:56:18.863Z,20.10
2018-12-14T01:58:48.094Z,19.60
2018-12-14T02:01:17.218Z,20.00
2018-12-14T02:03:46.388Z,18.70
2018-12-14T02:06:15.523Z,20.27
2018-12-14T02:08:45.875Z,18.97
2018-12-14T02:11:15.207Z,19.73
2018-12-14T02:13:44.399Z,18.77
2018-12-14T02:16:13.531Z,20.40
2018-12-14T02:18:44.775Z,19.40
2018-12-14T02:21:14.027Z,20.20
2018-12-14T02:23:43.201Z,19.27
2018-12-14T02:26:12.338Z,18.87
2018-12-14T02:28:41.525Z,18.87
2018-12-14T02:31:10.783Z,18.40
2018-12-14T02:33:39.984Z,19.83
2018-12-14T02:36:09.123Z,18.43
2018-12-14T02:38:38.292Z,20.00
2018-12-14T02:41:07.508Z,19.13
2018-12-14T02:43:36.884Z,21.23
2018-12-14T02:46:10.090Z,19.03
2018-12-14T02:48:39.255Z,18.13
2018-12-14T02:51:08.438Z,19.23
2018-12-14T02:53:37.750Z,19.73
2018-12-14T02:56:06.917Z,18.50
2018-12-14T02:58:36.110Z,18.80
2018-12-14T03:01:05.342Z,18.23
2018-12-14T03:03:35.058Z,17.80
2018-12-14T03:06:04.192Z,17.60
2018-12-14T03:08:33.317Z,16.03
2018-12-14T03:11:02.464Z,18.60
2018-12-14T03:13:31.643Z,16.70
2018-12-14T03:16:01.976Z,18.80
2018-12-14T03:18:31.309Z,18.53
2018-12-14T03:21:00.471Z,20.07
2018-12-14T03:23:29.791Z,17.60
2018-12-14T03:25:59.192Z,18.13
2018-12-14T03:28:28.371Z,17.23
2018-12-14T03:30:57.520Z,18.77
2018-12-14T03:33:27.701Z,18.87
2018-12-14T03:35:57.025Z,19.87
2018-12-14T03:38:26.161Z,18.77
2018-12-14T03:40:55.345Z,19.30
2018-12-14T03:43:24.489Z,20.50
2018-12-14T03:45:53.656Z,19.43
2018-12-14T03:48:26.623Z,19.63
2018-12-14T03:50:55.774Z,18.53
2018-12-14T03:53:24.982Z,19.10
2018-12-14T03:55:54.171Z,18.70
2018-12-14T03:58:25.807Z,16.20
2018-12-14T04:00:55.092Z,16.53
2018-12-14T04:03:24.227Z,19.10
2018-12-14T04:05:53.387Z,16.80
2018-12-14T04:08:22.545Z,17.53
2018-12-14T04:10:51.722Z,16.90
2018-12-14T04:13:20.945Z,15.97
2018-12-14T04:15:50.065Z,16.63
2018-12-14T04:18:19.220Z,16.57
2018-12-14T04:20:48.360Z,15.70
2018-12-14T04:23:17.618Z,17.53
2018-12-14T04:25:46.722Z,16.70
2018-12-14T04:28:15.923Z,17.60
2018-12-14T04:30:45.110Z,16.40
2018-12-14T04:33:14.837Z,17.70
2018-12-14T04:35:43.986Z,16.07
2018-12-14T04:38:13.223Z,17.60
2018-12-14T04:40:42.487Z,16.13
2018-12-14T04:43:11.778Z,16.90
2018-12-14T04:45:40.945Z,15.80
2018-12-14T04:48:10.030Z,16.70
2018-12-14T04:50:39.314Z,15.63
2018-12-14T04:53:08.471Z,18.10
2018-12-14T04:55:37.658Z,15.93
2018-12-14T04:58:06.816Z,16.33
2018-12-14T05:00:36.027Z,15.97
2018-12-14T05:03:07.025Z,17.43
2018-12-14T05:05:36.191Z,16.60
2018-12-14T05:08:06.664Z,17.07
2018-12-14T05:10:35.953Z,16.73
2018-12-14T05:13:06.769Z,16.80
2018-12-14T05:15:36.120Z,16.70
2018-12-14T05:18:08.263Z,16.70
2018-12-14T05:20:37.457Z,17.50
2018-12-14T05:23:06.613Z,16.20
2018-12-14T05:25:35.753Z,16.40
2018-12-14T05:28:05.215Z,16.00
2018-12-14T05:30:34.456Z,16.00
2018-12-14T05:33:04.801Z,17.90
2018-12-14T05:35:33.931Z,16.67
2018-12-14T05:38:04.346Z,16.83
2018-12-14T05:40:33.501Z,17.27
2018-12-14T05:43:03.567Z,16.87
2018-12-14T05:45:32.868Z,19.47
2018-12-14T05:48:02.021Z,17.93
2018-12-14T05:50:31.192Z,15.60
2018-12-14T05:53:00.394Z,17.50
2018-12-14T05:55:29.546Z,17.50
2018-12-14T05:57:58.711Z,17.37
2018-12-14T06:00:27.903Z,18.07
2018-12-14T06:02:57.063Z,18.90
2018-12-14T06:05:26.175Z,16.47
2018-12-14T06:07:55.352Z,17.17
2018-12-14T06:10:24.461Z,16.80
2018-12-14T06:12:53.630Z,18.37
2018-12-14T06:15:22.786Z,17.10
2018-12-14T06:17:51.977Z,18.23
2018-12-14T06:20:21.129Z,18.43
2018-12-14T06:22:50.303Z,19.47
2018-12-14T06:25:19.564Z,18.17
2018-12-14T06:27:48.756Z,17.73
2018-12-14T06:30:17.925Z,15.93
2018-12-14T06:32:47.071Z,17.90
2018-12-14T06:35:17.458Z,17.70
2018-12-14T06:37:46.800Z,18.43
2018-12-14T06:40:16.518Z,17.33
2018-12-14T06:42:45.710Z,17.03
2018-12-14T06:45:15.198Z,16.07
2018-12-14T06:47:44.455Z,16.97
2018-12-14T06:50:13.622Z,17.17
2018-12-14T06:52:42.784Z,18.13
2018-12-14T06:55:11.915Z,15.80
2018-12-14T06:57:41.147Z,16.00
2018-12-14T07:00:10.404Z,15.23
2018-12-14T07:02:41.223Z,16.63
2018-12-14T07:05:10.832Z,17.90
2018-12-14T07:07:40.312Z,15.47
2018-12-14T07:10:09.561Z,17.00
2018-12-14T07:12:38.847Z,17.20
2018-12-14T07:15:08.099Z,17.80
2018-12-14T07:17:37.374Z,17.07
2018-12-14T07:20:07.084Z,16.73
2018-12-14T07:22:36.382Z,15.77
2018-12-14T07:25:05.828Z,16.83
2018-12-14T07:27:34.955Z,16.50
2018-12-14T07:30:04.395Z,17.83
2018-12-14T07:32:33.534Z,17.03
2018-12-14T07:35:03.174Z,16.17
2018-12-14T07:37:32.344Z,17.03
2018-12-14T07:40:01.471Z,16.43
2018-12-14T07:42:30.683Z,16.77
2018-12-14T07:44:59.976Z,16.00
2018-12-14T07:47:29.168Z,17.70
2018-12-14T07:49:58.718Z,15.27
2018-12-14T07:52:28.037Z,15.60
2018-12-14T07:54:57.229Z,16.73
2018-12-14T07:57:26.469Z,15.77
2018-12-14T07:59:55.838Z,17.83
2018-12-14T08:02:25.374Z,17.20
2018-12-14T08:04:54.586Z,16.60
2018-12-14T08:07:23.791Z,17.87
2018-12-14T08:09:52.973Z,16.83
2018-12-14T08:12:22.159Z,16.50
2018-12-14T08:14:51.332Z,16.80
2018-12-14T08:17:20.840Z,16.10
2018-12-14T08:19:50.272Z,15.60
2018-12-14T08:22:19.771Z,15.83
2018-12-14T08:24:49.059Z,16.03
2018-12-14T08:27:18.139Z,15.70
2018-12-14T08:29:47.355Z,16.20
2018-12-14T08:32:16.514Z,14.90
2018-12-14T08:34:51.008Z,16.30
2018-12-14T08:37:16.991Z,16.60
2018-12-14T08:39:46.234Z,15.37
2018-12-14T08:42:15.426Z,15.57
2018-12-14T08:44:44.662Z,17.27
2018-12-14T08:47:13.860Z,17.13
2018-12-14T08:49:43.119Z,15.90
2018-12-14T08:52:12.273Z,16.50
2018-12-14T08:54:41.583Z,15.40
2018-12-14T08:57:10.950Z,16.97
2018-12-14T08:59:40.395Z,15.53
2018-12-14T09:02:09.566Z,14.27
2018-12-14T09:04:38.727Z,17.20
2018-12-14T09:07:07.913Z,14.90
2018-12-14T09:09:37.215Z,16.87
2018-12-14T09:12:06.519Z,15.07
2018-12-14T09:14:35.734Z,14.90
2018-12-14T09:17:05.078Z,17.43
2018-12-14T09:19:35.198Z,14.10
2018-12-14T09:22:05.795Z,16.93
2018-12-14T09:24:35.775Z,16.33
2018-12-14T09:27:05.196Z,15.17
2018-12-14T09:29:34.478Z,16.60
2018-12-14T09:32:03.895Z,17.70
2018-12-14T09:34:33.450Z,17.30
2018-12-14T09:37:02.751Z,16.60
2018-12-14T09:39:32.050Z,16.97
2018-12-14T09:42:01.308Z,19.20
2018-12-14T09:44:30.692Z,15.87
2018-12-14T09:47:00.173Z,17.30
2018-12-14T09:49:29.373Z,16.37
2018-12-14T09:51:58.579Z,16.93
2018-12-14T09:54:27.694Z,16.17
2018-12-14T09:56:57.115Z,16.27
2018-12-14T09:59:26.257Z,15.73
2018-12-14T10:01:55.666Z,15.57
2018-12-14T10:04:24.809Z,16.10
2018-12-14T10:06:54.212Z,16.23
2018-12-14T10:09:23.602Z,14.57
2018-12-14T10:11:55.253Z,15.60
2018-12-14T10:14:23.992Z,17.90
2018-12-14T10:16:53.247Z,16.97
2018-12-14T10:19:22.451Z,15.50
2018-12-14T10:21:51.832Z,15.97
2018-12-14T10:24:21.163Z,15.43
2018-12-14T10:26:50.410Z,16.60
2018-12-14T10:29:19.636Z,16.33
2018-12-14T10:31:49.019Z,16.60
2018-12-14T10:34:18.318Z,14.47
2018-12-14T10:36:47.654Z,15.20
2018-12-14T10:39:17.014Z,16.70
2018-12-14T10:41:46.249Z,17.70
2018-12-14T10:44:15.632Z,15.23
2018-12-14T10:46:44.784Z,17.07
2018-12-14T10:49:14.110Z,15.60
2018-12-14T10:51:43.547Z,14.77
2018-12-14T10:54:12.874Z,16.10
2018-12-14T10:56:42.162Z,14.80
2018-12-14T10:59:11.547Z,16.17
2018-12-14T11:01:45.868Z,15.20
2018-12-14T11:04:14.991Z,14.70
2018-12-14T11:06:44.253Z,14.93
2018-12-14T11:09:13.435Z,14.23
2018-12-14T11:11:42.704Z,14.23
2018-12-14T11:14:14.136Z,15.20
2018-12-14T11:16:43.422Z,15.20
2018-12-14T11:19:12.621Z,15.90
2018-12-14T11:21:41.903Z,14.40
2018-12-14T11:24:11.044Z,14.90
2018-12-14T11:26:40.302Z,15.33
2018-12-14T11:29:09.412Z,14.00
2018-12-14T11:31:38.639Z,14.70
2018-12-14T11:34:07.841Z,14.80
2018-12-14T11:36:37.262Z,14.97
2018-12-14T11:39:07.775Z,17.20
2018-12-14T11:41:37.152Z,15.00
2018-12-14T11:44:06.379Z,15.80
2018-12-14T11:46:35.610Z,14.07
2018-12-14T11:49:04.960Z,15.20
2018-12-14T11:51:34.216Z,15.87
2018-12-14T11:54:03.307Z,15.23
2018-12-14T11:56:32.461Z,14.93
2018-12-14T11:59:01.627Z,16.90
2018-12-14T12:01:30.798Z,15.97
2018-12-14T12:04:00.017Z,16.57
2018-12-14T12:06:29.352Z,15.63
2018-12-14T12:08:58.626Z,14.57
2018-12-14T12:11:27.799Z,15.80
2018-12-14T12:13:57.011Z,14.93
2018-12-14T12:16:26.217Z,16.10
2018-12-14T12:18:55.385Z,13.30
2018-12-14T12:21:24.622Z,15.53
2018-12-14T12:23:55.476Z,14.23
2018-12-14T12:26:25.032Z,15.10
2018-12-14T12:28:55.123Z,14.37
2018-12-14T12:31:24.321Z,16.10
2018-12-14T12:33:53.414Z,15.67
2018-12-14T12:36:22.633Z,15.20
2018-12-14T12:38:51.772Z,15.60
2018-12-14T12:41:21.048Z,17.63
2018-12-14T12:43:50.340Z,16.53
2018-12-14T12:46:19.517Z,14.53
2018-12-14T12:48:48.880Z,15.93
2018-12-14T12:51:18.290Z,15.93
2018-12-14T12:53:47.582Z,16.23
2018-12-14T12:56:16.927Z,14.50
2018-12-14T12:58:46.241Z,14.30
2018-12-14T13:01:15.326Z,14.33
2018-12-14T13:03:44.495Z,14.70
2018-12-14T13:06:13.719Z,14.23
2018-12-14T13:08:42.875Z,15.03
2018-12-14T13:11:12.017Z,13.37
2018-12-14T13:13:41.490Z,16.03
2018-12-14T13:16:10.786Z,15.77
2018-12-14T13:18:39.930Z,15.60
2018-12-14T13:21:09.075Z,14.50
2018-12-14T13:23:38.241Z,15.63
2018-12-14T13:26:07.467Z,15.70
2018-12-14T13:28:36.891Z,14.67
2018-12-14T13:31:06.023Z,15.00
2018-12-14T13:33:35.535Z,14.77
2018-12-14T13:36:04.848Z,16.27
2018-12-14T13:38:34.038Z,15.03
2018-12-14T13:41:03.428Z,14.07
2018-12-14T13:43:32.738Z,15.03
2018-12-14T13:46:02.039Z,13.83
2018-12-14T13:48:31.301Z,14.53
2018-12-14T13:51:00.554Z,13.93
2018-12-14T13:53:29.693Z,13.27
2018-12-14T13:55:58.930Z,13.03
2018-12-14T13:58:28.038Z,14.30
2018-12-14T14:00:57.228Z,13.93
2018-12-14T14:03:26.440Z,13.40
2018-12-14T14:05:55.739Z,13.30
2018-12-14T14:08:24.945Z,14.13
2018-12-14T14:10:54.082Z,13.67
2018-12-14T14:13:23.253Z,12.20
2018-12-14T14:15:52.531Z,13.40
2018-12-14T14:18:21.810Z,13.40
2018-12-14T14:20:51.136Z,12.80
2018-12-14T14:23:20.258Z,12.70
2018-12-14T14:25:49.692Z,12.67
2018-12-14T14:28:18.971Z,12.77
2018-12-14T14:30:48.087Z,13.00
2018-12-14T14:33:17.295Z,12.63
2018-12-14T14:35:46.408Z,13.60
2018-12-14T14:38:15.623Z,14.53
2018-12-14T14:40:44.765Z,14.73
2018-12-14T14:43:13.977Z,13.33
2018-12-14T14:45:43.215Z,14.37
2018-12-14T14:48:12.388Z,13.67
2018-12-14T14:50:41.650Z,13.70
2018-12-14T14:53:10.967Z,13.03
2018-12-14T14:55:40.062Z,12.70
2018-12-14T14:58:09.243Z,14.20
2018-12-14T15:00:38.410Z,12.43
2018-12-14T15:03:07.960Z,12.07
2018-12-14T15:05:37.058Z,11.60
2018-12-14T15:08:06.932Z,13.53
2018-12-14T15:10:36.068Z,14.67
2018-12-14T15:13:05.374Z,13.03
2018-12-14T15:15:34.638Z,13.13
2018-12-14T15:18:03.954Z,14.13
2018-12-14T15:20:33.329Z,14.07
2018-12-14T15:23:02.644Z,14.23
2018-12-14T15:25:31.870Z,12.80
2018-12-14T15:28:01.075Z,13.50
2018-12-14T15:30:30.203Z,14.03
2018-12-14T15:32:59.396Z,13.53
2018-12-14T15:35:28.640Z,13.97
2018-12-14T15:37:57.830Z,13.33
2018-12-14T15:40:27.010Z,14.47
2018-12-14T15:42:56.167Z,13.40
2018-12-14T15:45:25.431Z,14.40
2018-12-14T15:47:55.662Z,13.40
2018-12-14T15:50:24.988Z,14.00
2018-12-14T15:52:54.261Z,14.90
2018-12-14T15:55:23.624Z,15.10
2018-12-14T15:57:52.858Z,14.10
2018-12-14T16:00:23.341Z,14.30
2018-12-14T16:02:52.551Z,15.30
2018-12-14T16:05:21.999Z,14.20
2018-12-14T16:07:51.401Z,15.50
2018-12-14T16:10:20.939Z,13.80
2018-12-14T16:12:50.335Z,14.23
2018-12-14T16:15:28.929Z,14.50
2018-12-14T16:17:58.183Z,12.73
2018-12-14T16:20:27.634Z,15.83
2018-12-14T16:22:56.955Z,13.80
2018-12-14T16:25:26.415Z,15.63
2018-12-14T16:27:55.720Z,14.90
2018-12-14T16:30:25.787Z,14.93
2018-12-14T16:32:55.023Z,14.80
2018-12-14T16:35:24.602Z,15.90
2018-12-14T16:37:54.073Z,15.77
2018-12-14T16:40:23.433Z,15.10
2018-12-14T16:42:52.627Z,14.90
2018-12-14T16:45:26.465Z,14.60
2018-12-14T16:47:53.607Z,15.63
2018-12-14T16:50:23.011Z,14.13
2018-12-14T16:52:52.359Z,14.90
2018-12-14T16:55:21.750Z,14.90
2018-12-14T16:57:51.260Z,14.83
2018-12-14T17:00:21.226Z,13.50
2018-12-14T17:02:50.583Z,13.90
2018-12-14T17:05:19.919Z,14.93
2018-12-14T17:07:49.196Z,13.90
2018-12-14T17:10:18.434Z,15.60
2018-12-14T17:12:47.607Z,16.17
2018-12-14T17:15:17.646Z,15.13
2018-12-14T17:17:47.027Z,15.10
2018-12-14T17:20:16.472Z,15.03
2018-12-14T17:22:45.695Z,15.73
2018-12-14T17:25:14.830Z,13.60
2018-12-14T17:27:44.101Z,13.90
2018-12-14T17:30:13.442Z,13.53
2018-12-14T17:32:42.730Z,15.40
2018-12-14T17:35:12.025Z,15.47
2018-12-14T17:37:42.248Z,16.50
2018-12-14T17:40:11.539Z,15.13
2018-12-14T17:42:40.842Z,15.40
2018-12-14T17:45:10.155Z,15.60
2018-12-14T17:47:39.411Z,15.97
2018-12-14T17:50:08.743Z,17.73
2018-12-14T17:52:39.117Z,15.30
2018-12-14T17:55:08.480Z,15.30
2018-12-14T17:57:37.770Z,16.60
2018-12-14T18:00:07.484Z,16.33
2018-12-14T18:02:36.726Z,16.33
2018-12-14T18:05:06.238Z,17.17
2018-12-14T18:07:36.213Z,15.03
2018-12-14T18:10:05.972Z,15.00
2018-12-14T18:12:35.262Z,15.90
2018-12-14T18:15:04.810Z,15.10
2018-12-14T18:17:34.021Z,16.13
2018-12-14T18:20:03.211Z,14.77
2018-12-14T18:22:33.146Z,14.53
2018-12-14T18:25:02.727Z,15.17
2018-12-14T18:27:32.627Z,15.80
2018-12-14T18:30:02.315Z,14.30
2018-12-14T18:32:31.701Z,15.30
2018-12-14T18:35:01.120Z,15.67
2018-12-14T18:37:30.631Z,15.70
2018-12-14T18:40:00.235Z,15.40
2018-12-14T18:42:30.134Z,14.77
2018-12-14T18:44:59.803Z,15.63
2018-12-14T18:47:29.390Z,14.13
2018-12-14T18:49:59.123Z,14.70
2018-12-14T18:52:28.685Z,15.70
2018-12-14T18:54:58.198Z,13.20
2018-12-14T18:57:28.024Z,14.27
2018-12-14T18:59:57.359Z,13.63
2018-12-14T19:02:26.900Z,14.10
2018-12-14T19:04:56.595Z,14.07
2018-12-14T19:07:26.018Z,13.80
2018-12-14T19:09:55.651Z,12.83
2018-12-14T19:12:25.470Z,15.23
2018-12-14T19:14:55.191Z,15.47
2018-12-14T19:17:24.682Z,14.90
2018-12-14T19:19:54.059Z,15.50
2018-12-14T19:22:23.239Z,13.83
2018-12-14T19:24:52.519Z,14.63
2018-12-14T19:27:21.859Z,14.07
2018-12-14T19:29:51.159Z,15.47
2018-12-14T19:32:20.483Z,12.97
2018-12-14T19:34:50.149Z,13.80
2018-12-14T19:37:19.421Z,17.60
2018-12-14T19:39:48.822Z,12.10
2018-12-14T19:42:18.079Z,12.80
2018-12-14T19:44:47.355Z,11.93
2018-12-14T19:47:17.003Z,14.70
2018-12-14T19:49:46.698Z,13.13
2018-12-14T19:52:16.187Z,13.63
2018-12-14T19:54:46.340Z,13.07
2018-12-14T19:57:15.526Z,13.80
2018-12-14T19:59:44.902Z,13.97
2018-12-14T20:02:14.193Z,13.73
2018-12-14T20:04:43.772Z,14.33
2018-12-14T20:07:13.250Z,14.37
2018-12-14T20:09:42.614Z,14.73
2018-12-14T20:12:11.827Z,14.70
2018-12-14T20:14:41.619Z,13.20
2018-12-14T20:17:11.081Z,13.07
2018-12-14T20:19:40.330Z,13.53
2018-12-14T20:22:09.717Z,14.23
2018-12-14T20:24:39.528Z,14.60
2018-12-14T20:27:08.849Z,13.87
2018-12-14T20:29:38.367Z,14.00
2018-12-14T20:32:07.937Z,13.50
2018-12-14T20:34:37.255Z,14.47
2018-12-14T20:37:06.655Z,15.07
2018-12-14T20:39:35.933Z,13.50
2018-12-14T20:42:05.386Z,13.13
2018-12-14T20:44:34.917Z,13.80
2018-12-14T20:47:04.277Z,13.40
2018-12-14T20:49:33.771Z,13.30
2018-12-14T20:52:03.207Z,15.10
2018-12-14T20:54:32.540Z,15.20
2018-12-14T20:57:04.939Z,18.23
2018-12-14T20:59:34.693Z,14.40
2018-12-14T21:02:03.887Z,14.50
2018-12-14T21:04:33.034Z,13.43
2018-12-14T21:07:02.224Z,15.00
2018-12-14T21:09:31.342Z,12.80
2018-12-14T21:12:00.538Z,14.43
2018-12-14T21:14:29.925Z,13.73
2018-12-14T21:16:59.375Z,12.60
2018-12-14T21:19:28.626Z,13.00
2018-12-14T21:21:57.898Z,14.07
2018-12-14T21:24:28.225Z,14.37
2018-12-14T21:26:58.193Z,17.37
2018-12-14T21:29:28.931Z,15.50
2018-12-14T21:31:58.452Z,15.87
2018-12-14T21:34:27.635Z,14.50
2018-12-14T21:36:57.259Z,14.27
2018-12-14T21:39:27.060Z,14.20
2018-12-14T21:41:56.741Z,13.87
2018-12-14T21:44:26.418Z,15.53
2018-12-14T21:46:56.008Z,14.27
2018-12-14T21:49:25.413Z,12.87
2018-12-14T21:51:55.905Z,14.53
2018-12-14T21:54:25.476Z,14.50
2018-12-14T21:56:54.854Z,13.43
2018-12-14T21:59:25.077Z,15.60
2018-12-14T22:01:54.669Z,13.80
2018-12-14T22:04:25.326Z,13.30
2018-12-14T22:06:54.994Z,13.80
2018-12-14T22:09:25.188Z,14.83
2018-12-14T22:11:55.900Z,15.50
2018-12-14T22:14:25.819Z,15.87
2018-12-14T22:16:55.231Z,14.60
2018-12-14T22:19:24.895Z,13.97
2018-12-14T22:21:55.295Z,15.83
2018-12-14T22:24:25.071Z,15.23
2018-12-14T22:26:55.006Z,13.90
2018-12-14T22:29:24.386Z,14.80
2018-12-14T22:31:54.240Z,14.20
2018-12-14T22:34:24.932Z,15.97
2018-12-14T22:36:54.423Z,21.77
2018-12-14T22:39:24.150Z,16.97
2018-12-14T22:41:53.872Z,16.20
2018-12-14T22:44:23.471Z,15.03
2018-12-14T22:46:53.839Z,15.40
2018-12-14T22:49:23.374Z,16.60
2018-12-14T22:51:52.643Z,17.47
2018-12-14T22:54:21.775Z,16.63
2018-12-14T22:56:51.091Z,16.00
2018-12-14T22:59:20.231Z,15.00
2018-12-14T23:01:49.471Z,14.43
2018-12-14T23:04:18.624Z,15.50
2018-12-14T23:06:47.849Z,13.67
2018-12-14T23:09:17.121Z,14.97
2018-12-14T23:11:46.232Z,14.70
2018-12-14T23:14:15.370Z,17.10
2018-12-14T23:16:44.586Z,15.90
2018-12-14T23:19:13.723Z,16.83
2018-12-14T23:21:42.876Z,17.20
2018-12-14T23:24:12.008Z,15.70
2018-12-14T23:26:41.117Z,15.40
2018-12-14T23:29:10.303Z,15.60
2018-12-14T23:31:40.359Z,15.80
2018-12-14T23:34:09.527Z,15.63
2018-12-14T23:36:38.612Z,14.43
2018-12-14T23:39:08.510Z,16.10
2018-12-14T23:41:37.619Z,14.80
2018-12-14T23:44:06.839Z,16.00
2018-12-14T23:46:35.903Z,14.87
2018-12-14T23:49:05.095Z,15.67
2018-12-14T23:51:34.192Z,14.67
2018-12-14T23:54:03.339Z,14.77
2018-12-14T23:56:32.407Z,14.37
2018-12-14T23:59:01.503Z,15.27
